Time;durP1;ratioP1;P1;durP2;ratioP2;P2;SDS_P1;SDS_P2;PMS_P1;PMS_P2;Temp;Humidity;BMP_temperature;BMP_pressure;BME280_temperature;BME280_humidity;BME280_pressure;Samples;Min_cycle;Max_cycle;Signal;HPM_P1;HPM_P2
2022/03/02 00:01:37;;;;;;;17.17;8.07;;;1.30;99.90;;;;;;21148518;28;20036;-78
2022/03/02 00:11:38;;;;;;;16.30;7.35;;;1.20;99.90;;;;;;21166264;28;20111;-78
2022/03/02 00:21:39;;;;;;;15.40;6.85;;;1.10;99.90;;;;;;21165081;28;20028;-77
2022/03/02 00:31:40;;;;;;;15.10;6.60;;;1.10;99.90;;;;;;21161974;28;20478;-77
2022/03/02 00:41:41;;;;;;;22.25;9.93;;;0.90;99.90;;;;;;21152400;28;20405;-78
2022/03/02 00:51:42;;;;;;;20.80;7.93;;;0.70;99.90;;;;;;21135529;28;20394;-77
2022/03/02 01:01:43;;;;;;;14.75;6.88;;;0.50;99.90;;;;;;21161475;28;20123;-78
2022/03/02 01:11:44;;;;;;;19.50;8.45;;;0.30;99.90;;;;;;21134169;28;20043;-77
2022/03/02 01:21:45;;;;;;;21.55;9.50;;;0.40;99.90;;;;;;21160201;28;20031;-77
2022/03/02 01:31:46;;;;;;;18.23;9.02;;;0.30;99.90;;;;;;21159337;28;20033;-77
2022/03/02 01:41:47;;;;;;;19.85;8.35;;;0.20;99.90;;;;;;21159111;28;20019;-77
2022/03/02 01:51:47;;;;;;;25.83;8.93;;;0.10;99.90;;;;;;21158111;28;20023;-77
2022/03/02 02:01:49;;;;;;;19.95;9.50;;;-0.10;99.90;;;;;;21157757;28;20030;-77
2022/03/02 02:11:50;;;;;;;21.92;9.10;;;-0.20;99.90;;;;;;21157914;28;20367;-77
2022/03/02 02:21:50;;;;;;;24.42;10.10;;;-0.30;99.90;;;;;;21156349;28;20039;-77
2022/03/02 02:31:52;;;;;;;21.88;9.88;;;-0.50;99.90;;;;;;21164937;28;20059;-77
2022/03/02 02:42:02;;;;;;;31.38;10.10;;;-0.50;99.90;;;;;;21172917;28;20050;-76
2022/03/02 02:52:03;;;;;;;15.13;7.80;;;-0.60;99.90;;;;;;21136819;28;20073;-77
2022/03/02 03:02:04;;;;;;;20.27;7.90;;;-0.80;99.90;;;;;;21153041;28;20115;-77
2022/03/02 03:12:05;;;;;;;22.30;10.20;;;-0.80;99.90;;;;;;21152050;28;20063;-77
2022/03/02 03:22:07;;;;;;;26.15;9.60;;;-0.80;99.90;;;;;;21169477;28;20035;-76
2022/03/02 03:32:08;;;;;;;24.55;8.15;;;-0.90;99.90;;;;;;21167508;28;20023;-77
2022/03/02 03:42:10;;;;;;;22.35;9.75;;;-0.90;99.90;;;;;;21168270;28;20111;-76
2022/03/02 03:52:11;;;;;;;18.45;8.65;;;-0.90;99.90;;;;;;21167122;28;20055;-76
2022/03/02 04:02:12;;;;;;;21.98;9.60;;;-0.90;99.90;;;;;;21166515;28;20405;-76
2022/03/02 04:12:13;;;;;;;22.88;9.20;;;-1.10;99.90;;;;;;21165633;28;20081;-76
2022/03/02 04:22:14;;;;;;;17.42;8.45;;;-1.20;99.90;;;;;;21164770;28;20500;-76
2022/03/02 04:32:14;;;;;;;22.85;9.20;;;-1.20;99.90;;;;;;21164436;28;20385;-76
2022/03/02 04:42:16;;;;;;;23.98;7.93;;;-1.30;99.90;;;;;;21163157;28;20497;-76
2022/03/02 04:52:18;;;;;;;21.08;9.77;;;-1.40;99.90;;;;;;21162490;28;20035;-76
2022/03/02 05:02:19;;;;;;;21.50;8.98;;;-1.40;99.90;;;;;;21102372;28;20478;-76
2022/03/02 05:12:20;;;;;;;27.60;9.13;;;-1.40;99.90;;;;;;21144489;28;20028;-75
2022/03/02 05:22:21;;;;;;;22.65;9.00;;;-1.40;99.90;;;;;;21145942;28;20035;-76
2022/03/02 05:32:22;;;;;;;17.27;8.00;;;-1.40;99.90;;;;;;21159657;28;20031;-75
2022/03/02 05:42:23;;;;;;;24.20;10.13;;;-1.50;99.90;;;;;;21150671;28;20032;-75
2022/03/02 05:52:24;;;;;;;20.92;9.30;;;-1.70;99.90;;;;;;21135868;28;20028;-75
2022/03/02 06:02:25;;;;;;;19.65;7.55;;;-1.80;99.90;;;;;;21092697;28;20059;-76
2022/03/02 06:12:26;;;;;;;18.27;8.65;;;-1.40;99.90;;;;;;21004568;28;20071;-76
2022/03/02 06:22:28;;;;;;;19.55;7.85;;;-1.50;99.90;;;;;;20995423;28;20100;-75
2022/03/02 06:32:29;;;;;;;23.17;8.57;;;-1.50;99.90;;;;;;21044555;28;20024;-76
2022/03/02 06:42:59;;;;;;;17.50;8.35;;;-1.40;99.90;;;;;;21019013;28;20036;-76
2022/03/02 06:53:02;;;;;;;23.75;7.97;;;-1.20;99.90;;;;;;21071678;28;20122;-76
2022/03/02 07:03:06;;;;;;;17.90;8.27;;;-1.00;99.90;;;;;;21069358;28;20051;-76
2022/03/02 07:13:09;;;;;;;18.73;9.02;;;-1.00;99.90;;;;;;21142002;28;20490;-76
2022/03/02 07:23:15;;;;;;;18.35;9.05;;;-0.40;99.90;;;;;;21125703;28;20047;-76
2022/03/02 07:33:18;;;;;;;21.45;10.25;;;0.20;99.90;;;;;;21025756;28;20060;-76
2022/03/02 07:43:20;;;;;;;16.40;7.82;;;0.70;99.90;;;;;;21051142;28;20028;-76
2022/03/02 07:53:31;;;;;;;19.55;8.95;;;1.50;99.90;;;;;;21135788;28;20031;-76
2022/03/02 08:03:38;;;;;;;23.77;10.45;;;2.10;99.90;;;;;;21081797;28;20026;-76
2022/03/02 08:13:41;;;;;;;24.48;10.18;;;2.80;99.90;;;;;;21035427;28;20028;-77
2022/03/02 08:23:49;;;;;;;20.63;9.60;;;4.00;99.90;;;;;;21013363;28;20410;-77
2022/03/02 08:33:56;;;;;;;21.15;10.38;;;4.20;99.90;;;;;;20993635;28;20039;-77
2022/03/02 08:44:00;;;;;;;23.13;9.88;;;4.30;99.90;;;;;;21054913;28;20031;-77
2022/03/02 08:54:03;;;;;;;24.85;11.15;;;3.80;99.90;;;;;;20979062;28;1122640;-77
2022/03/02 09:04:06;;;;;;;26.23;10.77;;;3.20;99.90;;;;;;21016955;28;20028;-77
2022/03/02 09:14:07;;;;;;;25.20;11.35;;;3.80;99.90;;;;;;21003615;28;20491;-77
2022/03/02 09:24:10;;;;;;;23.30;10.38;;;4.40;99.90;;;;;;21055285;28;20051;-77
2022/03/02 09:34:14;;;;;;;26.27;11.38;;;4.60;99.90;;;;;;21055724;28;20511;-78
2022/03/02 09:44:19;;;;;;;26.40;11.70;;;4.20;99.90;;;;;;21053992;28;20490;-77
2022/03/02 09:54:22;;;;;;;28.30;13.18;;;5.20;99.90;;;;;;21059637;28;20027;-78
2022/03/02 10:04:28;;;;;;;28.80;14.68;;;6.30;99.90;;;;;;21064392;28;20112;-79
2022/03/02 10:14:29;;;;;;;27.55;14.48;;;7.40;99.90;;;;;;21051915;28;20124;-79
2022/03/02 10:24:32;;;;;;;31.43;15.33;;;8.20;99.90;;;;;;21052474;28;20043;-78
2022/03/02 10:34:42;;;;;;;26.95;14.55;;;7.50;99.90;;;;;;20990498;28;20031;-78
2022/03/02 10:45:03;;;;;;;28.20;14.60;;;6.40;99.90;;;;;;21060197;28;20078;-78
2022/03/02 10:55:13;;;;;;;28.65;15.65;;;7.50;99.90;;;;;;21083614;28;20028;-77
2022/03/02 11:05:16;;;;;;;27.73;14.85;;;8.50;99.90;;;;;;21080165;28;20063;-77
2022/03/02 11:15:18;;;;;;;27.48;14.10;;;8.90;99.90;;;;;;21074703;28;20032;-77
2022/03/02 11:25:19;;;;;;;;;;;9.50;99.90;;;;;;21077057;28;20671;-77
2022/03/02 11:35:20;;;;;;;28.40;14.30;;;10.30;99.90;;;;;;21060917;28;19920;-77
2022/03/02 11:45:25;;;;;;;26.63;14.50;;;10.00;99.90;;;;;;21017609;28;20289;-78
2022/03/02 11:55:26;;;;;;;23.67;13.77;;;11.60;99.90;;;;;;21024079;28;20047;-78
2022/03/02 12:05:30;;;;;;;21.73;13.77;;;13.30;99.90;;;;;;21047975;28;20686;-78
2022/03/02 12:15:52;;;;;;;26.55;14.88;;;13.80;99.90;;;;;;21032830;28;20046;-77
2022/03/02 12:25:54;;;;;;;;;;;13.00;99.90;;;;;;20989431;28;20043;-77
2022/03/02 12:35:54;;;;;;;28.83;15.57;;;11.50;99.90;;;;;;21004290;28;20090;-77
2022/03/02 12:45:56;;;;;;;28.10;15.40;;;11.60;99.90;;;;;;21039851;28;20032;-77
2022/03/02 12:55:56;;;;;;;25.37;14.97;;;11.40;99.90;;;;;;21071953;28;20410;-76
2022/03/02 13:06:03;;;;;;;28.80;15.50;;;11.70;99.90;;;;;;21047091;28;20032;-76
2022/03/02 13:16:37;;;;;;;29.00;15.98;;;12.00;99.90;;;;;;21056311;28;20028;-77
2022/03/02 13:26:58;;;;;;;28.42;14.20;;;12.10;99.90;;;;;;21038100;28;20032;-77
2022/03/02 13:37:01;;;;;;;29.45;12.52;;;12.30;99.90;;;;;;21055611;28;20133;-76
2022/03/02 13:47:08;;;;;;;28.02;15.00;;;11.60;99.90;;;;;;21053141;28;20097;-77
2022/03/02 13:57:29;;;;;;;33.03;14.88;;;12.20;99.90;;;;;;21013465;28;20082;-77
2022/03/02 14:07:30;;;;;;;25.42;12.80;;;13.00;99.90;;;;;;21020582;28;20047;-76
2022/03/02 14:17:32;;;;;;;26.47;12.80;;;11.50;99.90;;;;;;21004383;28;20470;-75
2022/03/02 14:27:33;;;;;;;;;;;11.00;99.90;;;;;;20976187;28;20541;-75
2022/03/02 14:37:58;;;;;;;25.27;12.83;;;10.90;99.90;;;;;;21012232;28;19919;-75
2022/03/02 14:48:17;;;;;;;40.42;19.05;;;10.70;99.90;;;;;;21041846;28;20296;-76
2022/03/02 14:58:25;;;;;;;30.02;15.15;;;10.90;99.90;;;;;;21080376;28;20063;-76
2022/03/02 15:08:50;;;;;;;33.85;15.73;;;11.30;99.90;;;;;;21026465;28;20529;-76
2022/03/02 15:18:58;;;;;;;32.50;15.02;;;11.30;99.90;;;;;;21089870;28;20043;-76
2022/03/02 15:29:04;;;;;;;27.55;15.93;;;11.10;99.90;;;;;;21043543;28;20522;-76
2022/03/02 15:39:04;;;;;;;48.92;17.13;;;10.90;99.90;;;;;;21020273;28;20767;-75
2022/03/02 15:49:05;;;;;;;32.37;15.80;;;10.30;99.90;;;;;;21049118;28;20157;-75
2022/03/02 15:59:07;;;;;;;39.53;16.60;;;10.00;99.90;;;;;;21037645;28;20036;-76
2022/03/02 16:09:13;;;;;;;31.17;14.60;;;9.70;99.90;;;;;;21038915;28;20479;-75
2022/03/02 16:19:15;;;;;;;29.00;14.63;;;9.50;99.90;;;;;;21037708;28;20040;-75
2022/03/02 16:29:16;;;;;;;28.38;15.27;;;9.30;99.90;;;;;;21016286;28;20170;-75
2022/03/02 16:39:17;;;;;;;30.67;14.67;;;9.10;99.90;;;;;;21017382;28;20036;-75
2022/03/02 16:49:18;;;;;;;35.53;14.83;;;8.90;99.90;;;;;;21029358;28;20036;-75
2022/03/02 16:59:19;;;;;;;33.87;15.90;;;8.70;99.90;;;;;;21026830;28;20037;-75
2022/03/02 17:09:21;;;;;;;31.63;15.70;;;8.50;99.90;;;;;;21019949;28;20084;-76
2022/03/02 17:19:23;;;;;;;35.38;14.52;;;8.20;99.90;;;;;;21007124;28;20035;-76
2022/03/02 17:29:24;;;;;;;34.25;15.63;;;8.10;99.90;;;;;;21052643;28;20123;-75
2022/03/02 17:39:24;;;;;;;38.80;16.37;;;7.90;99.90;;;;;;21036152;28;20036;-74
2022/03/02 17:49:25;;;;;;;32.70;16.23;;;7.80;99.90;;;;;;21013743;28;20606;-75
2022/03/02 17:59:27;;;;;;;36.50;16.27;;;7.50;99.90;;;;;;21038704;28;20039;-75
2022/03/02 18:09:28;;;;;;;33.88;16.45;;;7.60;99.90;;;;;;21010709;28;20566;-75
2022/03/02 18:19:30;;;;;;;42.20;16.67;;;7.40;99.90;;;;;;20995239;28;20048;-74
2022/03/02 18:29:32;;;;;;;36.38;18.10;;;7.30;99.90;;;;;;20972694;28;20444;-74
2022/03/02 18:39:34;;;;;;;37.10;16.58;;;7.20;99.90;;;;;;21050580;28;20043;-74
2022/03/02 18:49:34;;;;;;;31.83;16.05;;;7.10;99.90;;;;;;21051129;28;20523;-74
2022/03/02 18:59:35;;;;;;;34.77;16.70;;;6.70;99.90;;;;;;21045511;28;20041;-71
2022/03/02 19:09:41;;;;;;;32.03;16.43;;;7.20;99.90;;;;;;21011874;28;20028;-74
2022/03/02 19:19:42;;;;;;;40.67;19.08;;;7.80;99.90;;;;;;21028131;28;20715;-74
2022/03/02 19:29:46;;;;;;;37.67;17.27;;;7.30;99.90;;;;;;21058963;28;20032;-73
2022/03/02 19:39:57;;;;;;;35.53;16.20;;;6.70;99.90;;;;;;21040195;28;20040;-73
2022/03/02 19:50:06;;;;;;;38.53;17.08;;;6.60;99.90;;;;;;21012815;28;20064;-73
2022/03/02 20:00:07;;;;;;;33.67;15.95;;;6.60;99.90;;;;;;21027746;28;20067;-73
2022/03/02 20:10:13;;;;;;;41.92;16.95;;;6.40;99.90;;;;;;21060080;28;20039;-74
2022/03/02 20:20:15;;;;;;;30.40;16.10;;;6.10;99.90;;;;;;21060592;28;20038;-73
2022/03/02 20:30:16;;;;;;;33.75;15.93;;;5.80;99.90;;;;;;21051017;28;20097;-74
2022/03/02 20:40:17;;;;;;;31.87;16.23;;;5.70;99.90;;;;;;21058316;28;20372;-73
2022/03/02 20:50:18;;;;;;;33.77;16.80;;;5.80;99.90;;;;;;21052469;28;20036;-74
2022/03/02 21:00:19;;;;;;;37.53;18.33;;;6.00;99.90;;;;;;21047242;28;20623;-74
2022/03/02 21:10:20;;;;;;;38.70;18.43;;;5.20;99.90;;;;;;20985420;28;20077;-74
2022/03/02 21:20:21;;;;;;;36.33;17.60;;;5.20;99.90;;;;;;20972341;28;20530;-74
2022/03/02 21:30:22;;;;;;;42.92;20.38;;;4.90;99.90;;;;;;20968454;28;20040;-74
2022/03/02 21:40:23;;;;;;;40.75;20.20;;;4.90;99.90;;;;;;21011600;28;20051;-74
2022/03/02 21:50:27;;;;;;;43.50;18.98;;;5.00;99.90;;;;;;21017856;28;20109;-74
2022/03/02 22:00:28;;;;;;;40.25;18.10;;;4.90;99.90;;;;;;20986252;28;20032;-74
2022/03/02 22:10:29;;;;;;;33.70;15.73;;;4.80;99.90;;;;;;21047249;28;20040;-74
2022/03/02 22:20:29;;;;;;;31.80;16.30;;;4.80;99.90;;;;;;21017711;28;20048;-73
2022/03/02 22:30:30;;;;;;;33.27;16.43;;;4.50;99.90;;;;;;20971270;28;20513;-74
2022/03/02 22:40:31;;;;;;;28.92;13.93;;;4.60;99.90;;;;;;20983916;28;20361;-74
2022/03/02 22:50:32;;;;;;;35.55;14.57;;;4.60;99.90;;;;;;20967413;28;20094;-73
2022/03/02 23:00:48;;;;;;;30.73;14.25;;;4.40;99.90;;;;;;21012494;28;20043;-73
2022/03/02 23:21:08;;;;;;;27.05;12.57;;;3.90;99.90;;;;;;21065148;28;20066;-73
2022/03/02 23:31:09;;;;;;;;;;;3.80;99.90;;;;;;21044517;28;20442;-73
2022/03/02 23:41:10;;;;;;;29.13;13.73;;;3.50;99.90;;;;;;20966583;28;19916;-72
2022/03/02 23:51:11;;;;;;;;;;;3.40;99.90;;;;;;21063472;28;20047;-73
